Time;durP1;ratioP1;P1;durP2;ratioP2;P2;SDS_P1;SDS_P2;PMS_P1;PMS_P2;Temp;Humidity;BMP_temperature;BMP_pressure;BME280_temperature;BME280_humidity;BME280_pressure;Samples;Min_cycle;Max_cycle;Signal;HPM_P1;HPM_P2
2023/04/13 00:00:34;;;;;;;22.17;12.83;;;13.90;87.30;;;;;;5007642;28;20217;-77
2023/04/13 00:03:02;;;;;;;24.33;14.33;;;13.90;87.50;;;;;;5008468;28;20208;-77
2023/04/13 00:05:33;;;;;;;24.13;12.97;;;13.90;87.30;;;;;;5000104;28;20196;-78
2023/04/13 00:08:02;;;;;;;27.77;14.10;;;13.90;87.30;;;;;;5001914;28;20556;-77
2023/04/13 00:10:35;;;;;;;22.77;13.40;;;13.90;87.20;;;;;;5002224;28;20192;-77
2023/04/13 00:13:03;;;;;;;26.13;14.60;;;13.80;87.70;;;;;;5003763;28;20637;-76
2023/04/13 00:15:33;;;;;;;29.63;15.07;;;13.80;87.80;;;;;;5007911;28;20532;-77
2023/04/13 00:18:02;;;;;;;24.90;14.47;;;13.80;88.00;;;;;;5007651;28;20192;-77
2023/04/13 00:20:30;;;;;;;24.07;13.97;;;13.70;88.50;;;;;;5008316;28;20220;-77
2023/04/13 00:22:58;;;;;;;23.57;14.50;;;13.70;88.30;;;;;;5003678;28;20193;-78
2023/04/13 00:25:28;;;;;;;25.40;14.50;;;13.70;88.20;;;;;;5005940;28;20263;-77
2023/04/13 00:28:01;;;;;;;23.10;14.23;;;13.70;88.10;;;;;;5009531;28;20196;-77
2023/04/13 00:30:30;;;;;;;25.67;15.63;;;13.60;88.00;;;;;;5010145;28;20199;-77
2023/04/13 00:32:58;;;;;;;24.70;14.60;;;13.60;88.10;;;;;;5005634;28;20224;-77
2023/04/13 00:35:27;;;;;;;26.00;14.23;;;13.60;88.10;;;;;;5007331;28;20204;-77
2023/04/13 00:37:57;;;;;;;29.23;17.03;;;13.60;88.00;;;;;;5005110;28;20193;-77
2023/04/13 00:40:26;;;;;;;28.27;14.80;;;13.50;88.00;;;;;;5013030;28;20290;-77
2023/04/13 00:42:55;;;;;;;27.77;15.00;;;13.50;87.90;;;;;;5006889;28;20189;-76
2023/04/13 00:45:25;;;;;;;26.17;14.50;;;13.50;87.90;;;;;;5008498;28;20658;-77
2023/04/13 00:47:56;;;;;;;28.00;15.10;;;13.50;87.90;;;;;;5004267;28;20201;-77
2023/04/13 00:50:25;;;;;;;27.53;15.00;;;13.40;87.80;;;;;;5008428;28;20192;-78
2023/04/13 00:52:53;;;;;;;26.30;15.97;;;13.40;87.70;;;;;;5006336;28;20642;-77
2023/04/13 00:55:23;;;;;;;29.47;15.40;;;13.40;87.60;;;;;;5008072;28;20196;-78
2023/04/13 00:57:52;;;;;;;24.73;15.30;;;13.40;87.70;;;;;;5003697;28;20204;-78
2023/04/13 01:00:23;;;;;;;25.47;14.67;;;13.30;87.60;;;;;;5004090;28;20720;-79
2023/04/13 01:02:53;;;;;;;26.67;14.40;;;13.30;87.60;;;;;;5010809;28;20195;-78
2023/04/13 01:05:24;;;;;;;26.53;14.27;;;13.30;87.60;;;;;;5007172;28;20193;-78
2023/04/13 01:08:02;;;;;;;26.60;13.57;;;13.30;87.60;;;;;;5017671;28;20192;-78
2023/04/13 01:10:36;;;;;;;26.07;14.47;;;13.20;87.50;;;;;;5010219;28;20196;-78
2023/04/13 01:13:12;;;;;;;27.07;14.87;;;13.20;87.50;;;;;;5013637;28;20202;-78
2023/04/13 01:15:45;;;;;;;23.47;13.47;;;13.20;87.40;;;;;;5014603;28;20188;-78
2023/04/13 01:18:17;;;;;;;25.00;14.17;;;13.20;87.50;;;;;;5008037;28;20196;-78
2023/04/13 01:20:47;;;;;;;24.00;13.80;;;13.10;87.40;;;;;;5015026;28;20200;-79
2023/04/13 01:23:30;;;;;;;29.93;15.70;;;13.10;87.40;;;;;;5012342;28;20200;-79
2023/04/13 01:26:03;;;;;;;26.23;15.03;;;13.10;87.40;;;;;;5014182;28;20243;-78
2023/04/13 01:28:34;;;;;;;35.57;16.63;;;13.10;87.40;;;;;;5011656;28;20929;-78
2023/04/13 01:31:05;;;;;;;30.23;14.83;;;13.00;87.40;;;;;;5008992;28;20598;-78
2023/04/13 01:33:34;;;;;;;30.20;15.30;;;13.00;87.50;;;;;;5012202;28;20223;-78
2023/04/13 01:36:02;;;;;;;24.07;14.57;;;13.00;87.60;;;;;;5011141;28;20268;-78
2023/04/13 01:38:31;;;;;;;27.77;16.33;;;12.90;87.70;;;;;;5012670;28;20201;-78
2023/04/13 01:41:00;;;;;;;31.60;15.53;;;12.90;87.70;;;;;;5013899;28;20216;-78
2023/04/13 01:43:28;;;;;;;25.53;14.93;;;12.90;87.80;;;;;;5012172;28;20199;-78
2023/04/13 01:46:03;;;;;;;27.83;15.70;;;12.80;87.80;;;;;;5015297;28;20200;-78
2023/04/13 01:48:36;;;;;;;31.60;15.10;;;12.80;88.00;;;;;;5008388;28;20196;-78
2023/04/13 01:51:08;;;;;;;26.80;14.80;;;12.80;88.00;;;;;;5012105;28;20235;-78
2023/04/13 01:53:41;;;;;;;28.60;14.87;;;12.80;88.00;;;;;;5008153;28;20196;-75
2023/04/13 01:56:11;;;;;;;30.27;15.67;;;12.80;88.10;;;;;;5012991;28;20200;-75
2023/04/13 01:58:40;;;;;;;24.90;14.43;;;12.80;88.10;;;;;;5005928;28;20201;-75
2023/04/13 02:01:11;;;;;;;28.80;15.60;;;12.80;88.20;;;;;;5008167;28;20220;-75
2023/04/13 02:03:41;;;;;;;26.77;15.47;;;12.70;88.60;;;;;;5012253;28;20196;-76
2023/04/13 02:06:11;;;;;;;29.30;16.17;;;12.70;88.80;;;;;;5012206;28;20192;-75
2023/04/13 02:08:39;;;;;;;28.90;16.03;;;12.60;89.20;;;;;;5010572;28;20250;-75
2023/04/13 02:11:09;;;;;;;28.03;15.50;;;12.60;89.70;;;;;;5013861;28;20684;-75
2023/04/13 02:13:37;;;;;;;33.33;17.30;;;12.60;89.60;;;;;;5012558;28;20608;-76
2023/04/13 02:16:07;;;;;;;28.70;16.07;;;12.60;90.10;;;;;;5000358;28;20550;-75
2023/04/13 02:18:37;;;;;;;31.73;16.93;;;12.50;90.20;;;;;;5000208;28;20307;-75
2023/04/13 02:21:08;;;;;;;36.47;16.73;;;12.50;90.30;;;;;;5006466;28;20244;-75
2023/04/13 02:23:37;;;;;;;32.53;17.13;;;12.50;90.30;;;;;;5011503;28;20191;-75
2023/04/13 02:26:08;;;;;;;29.93;16.60;;;12.50;90.20;;;;;;5009022;28;20603;-75
2023/04/13 02:28:36;;;;;;;28.30;16.50;;;12.50;90.20;;;;;;5010288;28;20196;-76
2023/04/13 02:31:05;;;;;;;35.20;17.90;;;12.50;90.50;;;;;;5011853;28;20227;-75
2023/04/13 02:33:35;;;;;;;32.97;18.47;;;12.40;90.50;;;;;;5011853;28;20220;-75
2023/04/13 02:36:06;;;;;;;36.60;17.97;;;12.40;90.90;;;;;;5009112;28;20227;-77
2023/04/13 02:38:36;;;;;;;43.73;17.60;;;12.40;91.20;;;;;;5008808;28;20246;-77
2023/04/13 02:41:05;;;;;;;26.13;13.50;;;12.40;91.60;;;;;;5008535;28;22134;-78
2023/04/13 02:43:33;;;;;;;30.87;14.30;;;12.30;92.10;;;;;;5011867;28;20227;-77
2023/04/13 02:46:01;;;;;;;34.13;14.33;;;12.30;92.10;;;;;;5013112;28;20220;-77
2023/04/13 02:48:30;;;;;;;30.50;13.33;;;12.30;92.00;;;;;;5014453;28;20633;-78
2023/04/13 02:50:58;;;;;;;27.50;11.53;;;12.20;92.00;;;;;;5009817;28;20201;-77
2023/04/13 02:53:28;;;;;;;30.07;11.33;;;12.20;91.90;;;;;;5011949;28;20216;-78
2023/04/13 02:55:56;;;;;;;28.97;11.37;;;12.20;91.80;;;;;;5015059;28;20200;-78
2023/04/13 02:58:25;;;;;;;27.00;10.07;;;12.20;91.80;;;;;;5012629;28;20196;-78
2023/04/13 03:00:53;;;;;;;25.40;11.23;;;12.20;91.80;;;;;;5000836;28;20200;-77
2023/04/13 03:03:22;;;;;;;28.73;10.57;;;12.20;91.80;;;;;;5009181;28;20243;-78
2023/04/13 03:05:51;;;;;;;23.43;10.80;;;12.10;91.70;;;;;;5007178;28;20192;-77
2023/04/13 03:08:20;;;;;;;29.83;11.23;;;12.10;91.70;;;;;;5002217;28;20239;-78
2023/04/13 03:10:51;;;;;;;22.97;9.03;;;12.00;91.70;;;;;;5007286;28;20196;-77
2023/04/13 03:13:20;;;;;;;20.20;10.67;;;12.00;91.70;;;;;;5000450;28;20192;-77
2023/04/13 03:15:48;;;;;;;28.10;11.50;;;12.00;91.70;;;;;;5003874;28;21020;-77
2023/04/13 03:18:16;;;;;;;20.67;10.17;;;12.00;91.70;;;;;;5014538;28;20315;-78
2023/04/13 03:20:45;;;;;;;23.90;10.77;;;11.90;91.90;;;;;;5015298;28;20196;-78
2023/04/13 03:23:13;;;;;;;51.17;10.83;;;11.90;91.90;;;;;;5011052;28;20564;-78
2023/04/13 03:25:42;;;;;;;38.93;10.13;;;11.90;92.00;;;;;;5009120;28;20287;-78
2023/04/13 03:28:11;;;;;;;33.70;10.93;;;11.90;92.00;;;;;;5012229;28;20271;-78
2023/04/13 03:30:40;;;;;;;29.73;9.43;;;11.90;92.00;;;;;;5014697;28;20611;-78
2023/04/13 03:33:08;;;;;;;32.03;10.70;;;11.90;92.10;;;;;;5011792;28;20220;-78
2023/04/13 03:35:36;;;;;;;32.13;10.47;;;11.90;92.10;;;;;;5013847;28;20238;-77
2023/04/13 03:38:05;;;;;;;36.50;10.47;;;11.90;92.10;;;;;;5011351;28;20239;-78
2023/04/13 03:40:33;;;;;;;28.37;10.27;;;11.80;92.10;;;;;;5008062;28;20192;-78
2023/04/13 03:43:01;;;;;;;26.93;9.73;;;11.80;92.20;;;;;;5008353;28;20689;-77
2023/04/13 03:45:31;;;;;;;32.73;9.37;;;11.80;92.10;;;;;;5012849;28;20719;-78
2023/04/13 03:48:00;;;;;;;30.37;10.03;;;11.80;92.00;;;;;;5011856;28;20727;-78
2023/04/13 03:50:28;;;;;;;22.53;9.20;;;11.70;92.10;;;;;;5012714;28;20541;-78
2023/04/13 03:52:56;;;;;;;27.37;8.87;;;11.70;92.00;;;;;;5008923;28;20200;-77
2023/04/13 03:55:25;;;;;;;33.63;9.50;;;11.70;92.00;;;;;;5012692;28;20235;-78
2023/04/13 03:57:54;;;;;;;18.33;9.43;;;11.70;92.00;;;;;;5005810;28;20266;-78
2023/04/13 04:00:23;;;;;;;21.70;9.40;;;11.70;92.00;;;;;;5008237;28;20228;-78
2023/04/13 04:02:52;;;;;;;30.93;9.93;;;11.70;92.00;;;;;;5007699;28;20224;-77
2023/04/13 04:05:21;;;;;;;27.03;8.93;;;11.70;91.90;;;;;;5008184;28;20200;-78
2023/04/13 04:07:50;;;;;;;29.13;9.87;;;11.70;91.90;;;;;;5007253;28;20196;-77
2023/04/13 04:10:18;;;;;;;19.30;9.17;;;11.70;92.00;;;;;;5010659;28;20192;-79
2023/04/13 04:12:46;;;;;;;17.53;9.20;;;11.70;91.90;;;;;;5001118;28;20211;-78
2023/04/13 04:15:15;;;;;;;20.33;9.60;;;11.70;91.90;;;;;;5009929;28;20203;-79
2023/04/13 04:17:43;;;;;;;23.10;9.07;;;11.80;91.90;;;;;;5005877;28;20253;-78
2023/04/13 04:20:19;;;;;;;20.57;9.30;;;11.80;91.90;;;;;;5010326;28;20212;-78
2023/04/13 04:22:49;;;;;;;19.03;9.57;;;11.80;91.90;;;;;;5004466;28;20255;-77
2023/04/13 04:25:20;;;;;;;19.07;9.57;;;11.80;91.90;;;;;;5005134;28;20242;-78
2023/04/13 04:27:49;;;;;;;15.07;8.83;;;11.80;91.80;;;;;;5009434;28;20200;-78
2023/04/13 04:30:21;;;;;;;18.70;9.43;;;11.80;91.80;;;;;;5009903;28;20195;-77
2023/04/13 04:32:51;;;;;;;16.97;9.23;;;11.80;91.80;;;;;;5007051;28;20714;-78
2023/04/13 04:35:24;;;;;;;20.20;9.63;;;11.80;91.90;;;;;;5011303;28;20189;-79
2023/04/13 04:37:54;;;;;;;18.70;9.73;;;11.90;91.80;;;;;;5009042;28;20196;-79
2023/04/13 04:40:23;;;;;;;19.90;9.57;;;11.90;91.80;;;;;;5016606;28;20579;-78
2023/04/13 04:42:51;;;;;;;25.40;10.33;;;11.90;91.80;;;;;;5012605;28;20224;-77
2023/04/13 04:45:19;;;;;;;14.83;9.70;;;11.90;91.80;;;;;;5007514;28;20197;-78
2023/04/13 04:47:49;;;;;;;19.20;8.97;;;11.90;91.70;;;;;;5011963;28;20271;-78
2023/04/13 04:50:17;;;;;;;16.10;9.47;;;11.90;91.70;;;;;;5009708;28;20204;-79
2023/04/13 04:52:48;;;;;;;15.43;9.33;;;11.90;91.70;;;;;;5009446;28;20620;-78
2023/04/13 04:55:17;;;;;;;14.83;9.37;;;11.90;91.70;;;;;;5013003;28;20207;-78
2023/04/13 04:57:45;;;;;;;16.80;9.73;;;12.00;91.70;;;;;;5010605;28;20250;-79
2023/04/13 05:00:15;;;;;;;17.03;9.93;;;12.00;91.70;;;;;;5009228;28;20220;-76
2023/04/13 05:02:45;;;;;;;17.13;10.10;;;12.00;91.70;;;;;;5009483;28;20259;-78
2023/04/13 05:05:13;;;;;;;18.40;10.70;;;12.10;91.70;;;;;;5004041;28;20189;-78
2023/04/13 05:07:43;;;;;;;18.83;10.50;;;12.10;92.10;;;;;;4991383;28;20201;-79
2023/04/13 05:10:13;;;;;;;20.77;12.37;;;12.10;91.80;;;;;;5007806;28;20657;-78
2023/04/13 05:12:42;;;;;;;28.23;12.83;;;12.20;92.00;;;;;;5005023;28;20193;-78
2023/04/13 05:15:11;;;;;;;18.70;12.03;;;12.20;91.90;;;;;;5003862;28;20255;-78
2023/04/13 05:17:40;;;;;;;24.13;12.80;;;12.20;92.00;;;;;;5011590;28;20720;-78
2023/04/13 05:20:09;;;;;;;28.30;14.17;;;12.30;92.10;;;;;;5002328;28;20192;-77
2023/04/13 05:22:38;;;;;;;24.25;14.15;;;12.30;92.10;;;;;;5006692;28;20197;-77
2023/04/13 05:25:08;;;;;;;22.27;13.33;;;12.30;92.10;;;;;;5013863;28;20504;-78
2023/04/13 05:27:38;;;;;;;21.60;12.97;;;12.40;92.20;;;;;;5017120;28;20214;-79
2023/04/13 05:30:07;;;;;;;27.23;14.23;;;12.40;92.20;;;;;;5013657;28;20233;-78
2023/04/13 05:32:36;;;;;;;26.60;15.00;;;12.50;92.30;;;;;;5013469;28;20307;-78
2023/04/13 05:35:06;;;;;;;25.20;14.23;;;12.50;92.30;;;;;;5014249;28;20672;-78
2023/04/13 05:37:35;;;;;;;24.73;14.47;;;12.60;92.30;;;;;;5013557;28;20196;-79
2023/04/13 05:40:07;;;;;;;29.10;14.17;;;12.60;92.30;;;;;;5007598;28;20662;-78
2023/04/13 05:42:37;;;;;;;25.20;14.00;;;12.60;92.30;;;;;;5007023;28;20196;-78
2023/04/13 05:45:09;;;;;;;28.70;14.60;;;12.70;92.40;;;;;;5012409;28;20220;-77
2023/04/13 05:47:39;;;;;;;31.17;14.23;;;12.70;92.30;;;;;;5012414;28;20539;-78
2023/04/13 05:50:08;;;;;;;30.07;14.67;;;12.70;92.30;;;;;;5012491;28;20200;-78
2023/04/13 05:52:37;;;;;;;28.37;14.70;;;12.70;92.30;;;;;;5013076;28;20658;-78
2023/04/13 05:55:06;;;;;;;24.90;14.97;;;12.80;92.30;;;;;;5010187;28;20273;-77
2023/04/13 05:57:35;;;;;;;29.37;15.00;;;12.90;92.40;;;;;;5014959;28;20192;-79
2023/04/13 06:00:09;;;;;;;20.87;13.60;;;13.00;92.30;;;;;;5013723;28;20207;-78
2023/04/13 06:02:38;;;;;;;23.97;13.17;;;13.10;92.30;;;;;;5008790;28;20198;-77
2023/04/13 06:05:08;;;;;;;21.30;14.53;;;13.10;92.30;;;;;;5009403;28;20700;-79
2023/04/13 06:07:36;;;;;;;21.17;13.90;;;13.20;92.20;;;;;;5009487;28;20188;-80
2023/04/13 06:10:06;;;;;;;19.93;13.07;;;13.30;92.20;;;;;;5013912;28;20224;-80
2023/04/13 06:12:34;;;;;;;24.00;13.10;;;13.40;92.20;;;;;;5012079;28;20192;-78
2023/04/13 06:15:05;;;;;;;24.23;13.67;;;13.40;92.10;;;;;;5010119;28;20548;-79
2023/04/13 06:17:33;;;;;;;21.63;12.77;;;13.50;92.10;;;;;;5010860;28;20239;-79
2023/04/13 06:20:03;;;;;;;24.30;13.63;;;13.50;92.10;;;;;;5007341;28;20679;-79
2023/04/13 06:22:31;;;;;;;27.40;14.67;;;13.60;92.00;;;;;;5014011;28;20196;-80
2023/04/13 06:25:00;;;;;;;26.03;14.37;;;13.60;92.10;;;;;;5015867;28;20774;-79
2023/04/13 06:27:31;;;;;;;25.50;14.73;;;13.60;92.20;;;;;;5013524;28;20196;-78
2023/04/13 06:30:00;;;;;;;25.17;14.13;;;13.70;92.10;;;;;;5013996;28;20243;-79
2023/04/13 06:32:30;;;;;;;25.13;15.00;;;13.70;92.10;;;;;;5014517;28;20215;-79
2023/04/13 06:34:58;;;;;;;25.03;14.60;;;13.70;92.00;;;;;;5012315;28;20189;-79
2023/04/13 06:37:33;;;;;;;24.30;13.87;;;13.80;92.00;;;;;;5014299;28;20200;-78
2023/04/13 06:40:11;;;;;;;22.43;12.93;;;13.80;92.00;;;;;;5014967;28;20196;-78
2023/04/13 06:42:40;;;;;;;22.53;13.50;;;13.90;92.00;;;;;;5009258;28;22214;-77
2023/04/13 06:45:12;;;;;;;25.57;15.47;;;13.90;92.00;;;;;;5012809;28;21159;-81
2023/04/13 06:48:00;;;;;;;27.67;14.93;;;14.00;92.00;;;;;;5004457;28;20579;-78
2023/04/13 06:50:28;;;;;;;25.97;14.80;;;14.10;91.90;;;;;;5003598;28;20526;-78
2023/04/13 06:52:57;;;;;;;25.20;13.83;;;14.10;91.90;;;;;;5010449;28;20193;-78
2023/04/13 06:55:27;;;;;;;24.03;12.93;;;14.20;91.80;;;;;;5010967;28;20197;-79
2023/04/13 06:57:56;;;;;;;21.20;12.87;;;14.30;91.70;;;;;;5010406;28;20207;-79
2023/04/13 07:00:24;;;;;;;22.40;12.60;;;14.40;91.70;;;;;;5009774;28;20200;-79
2023/04/13 07:02:59;;;;;;;23.60;13.00;;;14.40;91.60;;;;;;5009890;28;20620;-79
2023/04/13 07:05:28;;;;;;;22.73;12.30;;;14.50;91.50;;;;;;5005791;28;20568;-77
2023/04/13 07:07:57;;;;;;;22.50;13.27;;;14.50;91.50;;;;;;5014074;28;20742;-79
2023/04/13 07:10:26;;;;;;;23.10;12.70;;;14.60;91.40;;;;;;5002135;28;20199;-78
2023/04/13 07:12:54;;;;;;;19.37;12.57;;;14.70;91.40;;;;;;4996433;28;20201;-79
2023/04/13 07:15:22;;;;;;;22.27;12.23;;;14.70;91.20;;;;;;5015272;28;20274;-80
2023/04/13 07:17:51;;;;;;;20.57;12.10;;;14.80;91.10;;;;;;5009003;28;20204;-78
2023/04/13 07:20:21;;;;;;;21.13;12.17;;;14.90;91.10;;;;;;5008218;28;20246;-78
2023/04/13 07:22:49;;;;;;;20.70;11.70;;;14.90;90.60;;;;;;5006681;28;20665;-78
2023/04/13 07:25:18;;;;;;;18.67;11.13;;;15.00;90.70;;;;;;5018031;28;20272;-79
2023/04/13 07:27:46;;;;;;;22.67;10.33;;;15.10;90.70;;;;;;5011598;28;20204;-79
2023/04/13 07:30:32;;;;;;;20.53;11.33;;;15.20;90.60;;;;;;5003264;28;20192;-79
2023/04/13 07:33:00;;;;;;;32.07;10.97;;;15.30;90.50;;;;;;5007977;28;20231;-78
2023/04/13 07:35:31;;;;;;;23.53;10.93;;;15.40;90.50;;;;;;5008259;28;20198;-77
2023/04/13 07:37:59;;;;;;;16.90;9.63;;;15.40;90.00;;;;;;5014331;28;20195;-80
2023/04/13 07:40:27;;;;;;;18.57;9.07;;;15.50;89.20;;;;;;5007979;28;20197;-78
2023/04/13 07:42:56;;;;;;;15.23;8.63;;;15.50;88.20;;;;;;5006999;28;20196;-78
2023/04/13 07:45:24;;;;;;;18.73;9.57;;;15.60;88.50;;;;;;5007195;28;20265;-79
2023/04/13 07:47:53;;;;;;;17.57;9.50;;;15.70;88.60;;;;;;5008424;28;20247;-78
2023/04/13 07:50:22;;;;;;;18.17;8.93;;;15.70;88.50;;;;;;5014352;28;20254;-77
2023/04/13 07:52:52;;;;;;;22.83;9.93;;;15.80;87.80;;;;;;5010038;28;20201;-77
2023/04/13 07:55:20;;;;;;;13.73;7.93;;;15.80;87.90;;;;;;5011291;28;20232;-77
2023/04/13 07:57:48;;;;;;;15.93;8.37;;;15.90;88.40;;;;;;5009303;28;20200;-77
2023/04/13 08:00:19;;;;;;;14.43;7.50;;;15.90;86.70;;;;;;5009771;28;20204;-77
2023/04/13 08:02:47;;;;;;;15.17;7.67;;;16.00;87.00;;;;;;5009124;28;20201;-80
2023/04/13 08:05:16;;;;;;;15.67;8.53;;;16.00;86.90;;;;;;5013758;28;20227;-76
2023/04/13 08:07:47;;;;;;;12.10;7.37;;;16.10;86.70;;;;;;5003929;28;20677;-77
2023/04/13 08:10:17;;;;;;;13.13;7.57;;;16.10;85.70;;;;;;5003056;28;20196;-78
2023/04/13 08:12:46;;;;;;;11.73;7.10;;;16.10;84.80;;;;;;5008814;28;20696;-79
2023/04/13 08:15:14;;;;;;;14.47;8.93;;;16.10;84.50;;;;;;5001544;28;20192;-77
2023/04/13 08:17:42;;;;;;;13.70;6.93;;;16.20;84.80;;;;;;5013511;28;20201;-76
2023/04/13 08:20:12;;;;;;;12.10;6.67;;;16.10;83.80;;;;;;5013502;28;20196;-79
2023/04/13 08:22:41;;;;;;;12.00;6.50;;;16.10;83.70;;;;;;4984889;28;20317;-81
2023/04/13 08:25:09;;;;;;;14.37;7.40;;;16.20;84.20;;;;;;5005657;28;20747;-78
2023/04/13 08:27:39;;;;;;;13.40;6.83;;;16.20;84.80;;;;;;5015243;28;20201;-77
2023/04/13 08:30:10;;;;;;;11.83;6.87;;;16.20;83.80;;;;;;5014360;28;20193;-81
2023/04/13 08:32:49;;;;;;;14.63;6.87;;;16.20;83.40;;;;;;5018643;28;20220;-81
2023/04/13 08:35:22;;;;;;;12.37;6.37;;;16.30;83.60;;;;;;5010284;28;20291;-79
2023/04/13 08:37:51;;;;;;;10.30;5.83;;;16.40;84.10;;;;;;5019642;28;20196;-77
2023/04/13 08:40:21;;;;;;;10.87;6.27;;;16.40;83.30;;;;;;5016183;28;20200;-78
2023/04/13 08:42:52;;;;;;;11.27;6.20;;;16.40;83.10;;;;;;5006383;28;20200;-77
2023/04/13 08:45:20;;;;;;;15.07;6.10;;;16.50;83.40;;;;;;5009916;28;20208;-78
2023/04/13 08:47:49;;;;;;;9.83;5.13;;;16.60;83.10;;;;;;5015084;28;20224;-77
2023/04/13 08:50:18;;;;;;;8.23;5.00;;;16.70;83.10;;;;;;5013417;28;20272;-80
2023/04/13 08:52:46;;;;;;;7.60;4.90;;;16.80;82.70;;;;;;5015375;28;20197;-78
2023/04/13 08:55:15;;;;;;;10.03;5.50;;;16.80;79.70;;;;;;5013915;28;20246;-81
2023/04/13 08:57:44;;;;;;;8.80;5.00;;;16.90;80.30;;;;;;5006034;28;21140;-78
2023/04/13 09:00:16;;;;;;;7.70;4.47;;;17.00;80.80;;;;;;5015644;28;20638;-79
2023/04/13 09:02:53;;;;;;;9.83;4.97;;;17.00;80.60;;;;;;5002257;28;20188;-79
2023/04/13 09:05:34;;;;;;;6.47;3.80;;;17.10;80.60;;;;;;5019084;28;20216;-80
2023/04/13 09:08:15;;;;;;;7.80;4.20;;;17.20;79.90;;;;;;5010077;28;20200;-80
2023/04/13 09:10:46;;;;;;;7.63;3.97;;;17.30;79.60;;;;;;5008991;28;20218;-80
2023/04/13 09:13:15;;;;;;;7.60;4.60;;;17.40;79.50;;;;;;5010676;28;20239;-79
2023/04/13 09:15:46;;;;;;;11.23;5.03;;;17.40;78.90;;;;;;5010984;28;20241;-80
2023/04/13 09:18:17;;;;;;;7.17;3.90;;;17.50;78.10;;;;;;5010330;28;20200;-80
2023/04/13 09:20:55;;;;;;;4.07;2.57;;;17.50;77.60;;;;;;5010861;28;20201;-80
2023/04/13 09:23:25;;;;;;;5.47;2.40;;;17.50;72.70;;;;;;5017708;28;20242;-80
2023/04/13 09:26:07;;;;;;;6.17;2.77;;;17.60;73.60;;;;;;5007233;28;20752;-83
2023/04/13 09:28:46;;;;;;;7.17;3.67;;;17.70;73.60;;;;;;5012245;28;20239;-81
2023/04/13 09:31:23;;;;;;;10.43;4.10;;;17.80;73.60;;;;;;5009468;28;20363;-83
2023/04/13 09:33:55;;;;;;;8.20;3.87;;;17.90;74.20;;;;;;5017965;28;20199;-82
2023/04/13 09:36:25;;;;;;;6.63;3.50;;;18.00;74.50;;;;;;5012197;28;20555;-78
2023/04/13 09:38:56;;;;;;;9.47;3.77;;;18.00;74.10;;;;;;5014280;28;20197;-80
2023/04/13 09:41:33;;;;;;;5.13;3.30;;;18.10;73.50;;;;;;5016234;28;20198;-83
2023/04/13 09:44:02;;;;;;;4.33;2.30;;;18.10;69.90;;;;;;5018893;28;20195;-83
2023/04/13 09:46:40;;;;;;;3.80;2.30;;;18.10;67.30;;;;;;5009364;28;20251;-81
2023/04/13 09:49:09;;;;;;;4.57;2.57;;;18.20;69.30;;;;;;5011151;28;20191;-80
2023/04/13 09:51:38;;;;;;;5.47;2.60;;;18.30;68.40;;;;;;5018386;28;20672;-82
2023/04/13 09:54:11;;;;;;;4.87;2.40;;;18.30;68.60;;;;;;4992220;28;20200;-81
2023/04/13 09:56:45;;;;;;;4.70;2.73;;;18.50;68.70;;;;;;5015224;28;20725;-82
2023/04/13 09:59:14;;;;;;;4.90;2.30;;;18.50;68.60;;;;;;5022607;28;20648;-80
2023/04/13 10:01:44;;;;;;;5.57;2.20;;;18.60;68.70;;;;;;5007323;28;20204;-78
2023/04/13 10:04:13;;;;;;;3.50;2.30;;;18.70;69.00;;;;;;5006784;28;20287;-77
2023/04/13 10:06:43;;;;;;;5.43;2.60;;;18.80;66.90;;;;;;5016530;28;20220;-79
2023/04/13 10:09:12;;;;;;;8.33;3.33;;;18.80;66.30;;;;;;5013062;28;20200;-77
2023/04/13 10:11:45;;;;;;;4.80;2.50;;;18.90;66.50;;;;;;5011116;28;20341;-76
2023/04/13 10:14:18;;;;;;;4.80;2.90;;;19.00;66.70;;;;;;5011460;28;20279;-79
2023/04/13 10:17:08;;;;;;;6.90;2.37;;;19.10;65.30;;;;;;5008321;28;20288;-76
2023/04/13 10:19:42;;;;;;;5.93;2.83;;;19.20;65.50;;;;;;5011358;28;20208;-78
2023/04/13 10:22:11;;;;;;;3.07;2.00;;;19.30;66.10;;;;;;5018455;28;20287;-76
2023/04/13 10:24:40;;;;;;;5.00;2.50;;;19.40;66.10;;;;;;5008608;28;20207;-77
2023/04/13 10:27:14;;;;;;;7.28;3.28;;;19.50;65.10;;;;;;5013206;28;20564;-77
2023/04/13 10:29:42;;;;;;;5.53;3.20;;;19.60;65.80;;;;;;5010067;28;20196;-77
2023/04/13 10:32:22;;;;;;;4.22;2.67;;;19.60;64.20;;;;;;5024140;28;20354;-79
2023/04/13 10:34:51;;;;;;;10.77;3.58;;;19.70;64.00;;;;;;5040899;28;20221;-78
2023/04/13 10:37:21;;;;;;;5.53;3.22;;;19.80;65.00;;;;;;5033173;28;20314;-76
2023/04/13 10:40:04;;;;;;;7.38;3.00;;;19.90;65.50;;;;;;5034536;28;20207;-78
2023/04/13 10:42:42;;;;;;;6.60;3.60;;;20.00;65.30;;;;;;5039372;28;20192;-77
2023/04/13 10:45:20;;;;;;;8.15;3.67;;;20.10;64.70;;;;;;5026719;28;20737;-75
2023/04/13 10:47:51;;;;;;;5.32;2.92;;;20.10;63.60;;;;;;5032221;28;20203;-78
2023/04/13 10:50:21;;;;;;;5.75;3.03;;;20.10;61.10;;;;;;5033140;28;20275;-76
2023/04/13 10:53:01;;;;;;;4.80;2.80;;;20.20;61.60;;;;;;5031545;28;20247;-76
2023/04/13 10:55:31;;;;;;;4.13;2.47;;;20.20;61.30;;;;;;5030454;28;20200;-77
2023/04/13 10:58:00;;;;;;;6.05;2.47;;;20.40;61.80;;;;;;5032842;28;20196;-76
2023/04/13 11:00:31;;;;;;;7.28;3.75;;;20.40;61.90;;;;;;5034160;28;20250;-77
2023/04/13 11:03:17;;;;;;;3.88;2.17;;;20.50;61.90;;;;;;5033495;28;20215;-75
2023/04/13 11:05:47;;;;;;;13.00;5.38;;;20.50;59.20;;;;;;5032718;28;20604;-76
2023/04/13 11:08:19;;;;;;;4.22;2.17;;;20.60;60.20;;;;;;5031993;28;20715;-79
2023/04/13 11:10:52;;;;;;;4.68;2.72;;;20.70;60.00;;;;;;5032051;28;20207;-77
2023/04/13 11:13:20;;;;;;;3.67;1.95;;;20.80;59.50;;;;;;5031620;28;20203;-77
2023/04/13 11:15:50;;;;;;;4.75;2.20;;;20.80;58.60;;;;;;5031553;28;20207;-76
2023/04/13 11:18:27;;;;;;;4.47;2.67;;;20.90;59.40;;;;;;5036436;28;20676;-75
2023/04/13 11:20:56;;;;;;;5.63;2.88;;;20.90;60.80;;;;;;5031599;28;20660;-78
2023/04/13 11:23:24;;;;;;;4.80;2.95;;;20.90;60.80;;;;;;5028227;28;20257;-76
2023/04/13 11:25:55;;;;;;;8.07;2.95;;;21.00;60.90;;;;;;5030149;28;20210;-76
2023/04/13 11:28:24;;;;;;;4.97;2.78;;;21.10;59.30;;;;;;5031011;28;20192;-78
2023/04/13 11:30:54;;;;;;;4.20;2.33;;;21.10;59.20;;;;;;5031410;28;20258;-77
2023/04/13 11:33:29;;;;;;;6.55;3.00;;;21.20;59.30;;;;;;5038066;28;20261;-77
2023/04/13 11:35:59;;;;;;;4.90;2.47;;;21.30;59.50;;;;;;5028357;28;20991;-77
2023/04/13 11:38:28;;;;;;;5.15;2.30;;;21.30;57.90;;;;;;5028988;28;20249;-78
2023/04/13 11:41:02;;;;;;;4.82;1.95;;;21.30;58.10;;;;;;5037081;28;20210;-78
2023/04/13 11:43:47;;;;;;;6.28;2.30;;;21.40;57.80;;;;;;5029283;28;20199;-78
2023/04/13 11:46:23;;;;;;;3.40;2.17;;;21.50;58.10;;;;;;5037657;28;20270;-78
2023/04/13 11:48:56;;;;;;;4.47;2.28;;;21.50;58.00;;;;;;5036950;28;20199;-75
2023/04/13 11:51:25;;;;;;;3.97;2.20;;;21.50;57.90;;;;;;5036717;28;20660;-78
2023/04/13 11:53:54;;;;;;;3.47;2.00;;;21.60;58.30;;;;;;5019627;28;20199;-78
2023/04/13 11:56:31;;;;;;;3.85;2.35;;;21.80;58.00;;;;;;5018812;28;20207;-77
2023/04/13 11:59:00;;;;;;;4.00;2.33;;;21.80;57.30;;;;;;5035366;28;20972;-75
2023/04/13 12:01:29;;;;;;;4.65;2.38;;;21.90;57.80;;;;;;5029447;28;20219;-77
2023/04/13 12:04:04;;;;;;;5.88;3.72;;;22.00;57.80;;;;;;5030515;28;20311;-76
2023/04/13 12:06:44;;;;;;;4.35;1.92;;;22.10;57.80;;;;;;5038702;28;20211;-75
2023/04/13 12:09:14;;;;;;;5.28;2.13;;;22.10;57.00;;;;;;5033915;28;20687;-77
2023/04/13 12:11:52;;;;;;;3.00;1.90;;;22.30;56.60;;;;;;5032252;28;20200;-77
2023/04/13 12:14:40;;;;;;;3.50;2.10;;;22.20;55.60;;;;;;5030462;28;20278;-78
2023/04/13 12:17:12;;;;;;;2.90;1.70;;;22.20;55.10;;;;;;5029260;28;20191;-76
2023/04/13 12:20:03;;;;;;;3.05;1.67;;;22.20;54.90;;;;;;5027859;28;20199;-77
2023/04/13 12:22:37;;;;;;;3.17;1.90;;;22.30;54.90;;;;;;5035197;28;20610;-77
2023/04/13 12:25:26;;;;;;;3.38;1.60;;;22.30;54.50;;;;;;5033996;28;20207;-78
2023/04/13 12:28:04;;;;;;;6.15;1.80;;;22.10;54.50;;;;;;5036814;28;20746;-76
2023/04/13 12:30:33;;;;;;;3.25;1.70;;;22.00;54.70;;;;;;5034651;28;20199;-80
2023/04/13 12:33:02;;;;;;;4.80;1.35;;;21.90;54.70;;;;;;5030673;28;20231;-79
2023/04/13 12:35:32;;;;;;;3.42;1.70;;;22.00;54.40;;;;;;5025154;28;20203;-77
2023/04/13 12:38:00;;;;;;;2.45;1.38;;;22.10;55.00;;;;;;5026518;28;21094;-77
2023/04/13 12:40:28;;;;;;;2.17;1.45;;;22.10;55.40;;;;;;5039354;28;20195;-79
2023/04/13 12:42:57;;;;;;;2.50;1.55;;;22.20;54.70;;;;;;5032638;28;20204;-77
2023/04/13 12:45:27;;;;;;;3.63;1.60;;;22.20;54.80;;;;;;5036251;28;20545;-80
2023/04/13 12:47:55;;;;;;;3.33;1.67;;;22.20;54.40;;;;;;5023812;28;20916;-78
2023/04/13 12:50:24;;;;;;;1.83;1.20;;;22.30;55.10;;;;;;5029923;28;20296;-78
2023/04/13 12:52:53;;;;;;;4.18;1.30;;;22.40;55.60;;;;;;5030058;28;20601;-78